EDAC Airport Information

Runway Information
Runway 04 Length 7333 ft width 148 ft Elevation 639 ft Threshold 853 ft Heading 41
Runway 22 Length 7333 ft Width 148 ft Elevation 605 ft Threshold 985 ft Heading 221
Airport Frequencies
Type AAS Name INFO Frequency 123.575 MHZ
Type INFO Name MUNCHEN IN Frequency 125.8 MHZ
Type RDR Name MUNCHEN RA Frequency 132.3 MHZ
Type TWR Name TWR Frequency 123.575 MHZ
Airport Navaids
Type NDB Name Altenburg Frequency 330 KHZ
Type DME Name Altenburg Frequency 115300 KHZ
Airport Weather Information & NOTAM
ADDS - METARS form results

(0157 UTC 12 August 2022)
Data provider http://aviationweather.gov/metar/data/
 
METAR text: EDAC 120150Z AUTO 12003KT 9999 // NCD 12/08 Q1021
Conditions at: EDAC (ALTENBURG-NOBITZ, DE) observed 0150 UTC 12 August 2022
Temperature: 12.0°C (54°F)
Dewpoint: 8.0°C (46°F) [RH = 76%]
Pressure (altimeter): 30.15 inches Hg (1021.0 mb)
Winds: from the ESE (120 degrees) at 3 MPH (3 knots; 1.5 m/s)
Visibility: 6 or more miles (10+ km)
Ceiling: at least 12,000 feet AGL
Clouds: sky clear below 12,000 feet AGL
Weather: no significant weather observed at this time

METAR text: EDAC 120120Z AUTO 15002KT 9999 // NCD 12/08 Q1021
Conditions at: EDAC (ALTENBURG-NOBITZ, DE) observed 0120 UTC 12 August 2022
Temperature: 12.0°C (54°F)
Dewpoint: 8.0°C (46°F) [RH = 76%]
Pressure (altimeter): 30.15 inches Hg (1021.0 mb)
Winds: from the SSE (150 degrees) at 2 MPH (2 knots; 1.0 m/s)
Visibility: 6 or more miles (10+ km)
Ceiling: at least 12,000 feet AGL
Clouds: sky clear below 12,000 feet AGL
Weather: no significant weather observed at this time

Forecast for: EDAC (ALTENBURG-NOBITZ, DE)
Text: TAF EDAC 111700Z 1118/1203 05008KT CAVOK
Forecast period: 1800 UTC 11 August 2022 to 0300 UTC 12 August 2022
Forecast type: FROM: standard forecast or significant change
Winds: from the NE (50 degrees) at 9 MPH (8 knots; 4.1 m/s)
Visibility: 6 or more miles (10+ km)
Ceiling: unknown
Clouds: missing
Weather: NSW  (no significant weather)
Text: BECMG 1118/1120 08003KT
Forecast period: 1800 UTC 11 August 2022 to 0300 UTC 12 August 2022
Forecast type: BECOMING: Conditions expected to become as follows by 2000 UTC 11 August 2022
Winds: from the E (80 degrees) at 3 MPH (3 knots; 1.5 m/s)
Visibility: 6 or more miles (10+ km)
Ceiling: unknown
Clouds: missing
Weather: NSW  (no significant weather)